sensor_id;sensor_type;location;lat;lon;timestamp;pressure;altitude;pressure_sealevel;temperature;humidity
67457;BME280;54319;52.038;4.640;2023-04-06T00:00:16;101911.56;;;4.98;62.77
67457;BME280;54319;52.038;4.640;2023-04-06T00:02:43;101940.94;;;5.11;63.09
67457;BME280;54319;52.038;4.640;2023-04-06T00:05:10;101935.81;;;5.08;62.87
67457;BME280;54319;52.038;4.640;2023-04-06T00:07:37;101932.41;;;5.06;63.17
67457;BME280;54319;52.038;4.640;2023-04-06T00:10:08;101921.06;;;5.02;62.83
67457;BME280;54319;52.038;4.640;2023-04-06T00:12:35;101931.41;;;5.07;62.78
67457;BME280;54319;52.038;4.640;2023-04-06T00:15:05;101915.97;;;4.99;62.21
67457;BME280;54319;52.038;4.640;2023-04-06T00:17:33;101911.94;;;5.03;62.61
67457;BME280;54319;52.038;4.640;2023-04-06T00:20:04;101922.38;;;4.98;62.92
67457;BME280;54319;52.038;4.640;2023-04-06T00:22:30;101922.78;;;5.03;61.63
67457;BME280;54319;52.038;4.640;2023-04-06T00:24:57;101915.66;;;5.02;61.98
67457;BME280;54319;52.038;4.640;2023-04-06T00:27:24;101913.97;;;5.01;62.54
67457;BME280;54319;52.038;4.640;2023-04-06T00:29:50;101916.78;;;5.00;61.80
67457;BME280;54319;52.038;4.640;2023-04-06T00:32:18;101901.31;;;4.92;62.19
67457;BME280;54319;52.038;4.640;2023-04-06T00:34:48;101812.19;;;4.34;62.15
67457;BME280;54319;52.038;4.640;2023-04-06T00:37:18;101896.78;;;4.83;62.35
67457;BME280;54319;52.038;4.640;2023-04-06T00:39:45;101885.88;;;4.74;62.04
67457;BME280;54319;52.038;4.640;2023-04-06T00:42:13;101884.56;;;4.78;62.40
67457;BME280;54319;52.038;4.640;2023-04-06T00:44:40;101901.91;;;4.86;62.13
67457;BME280;54319;52.038;4.640;2023-04-06T00:47:07;101889.16;;;4.78;62.11
67457;BME280;54319;52.038;4.640;2023-04-06T00:49:35;101822.25;;;4.42;62.50
67457;BME280;54319;52.038;4.640;2023-04-06T00:52:01;101884.16;;;4.73;61.71
67457;BME280;54319;52.038;4.640;2023-04-06T00:54:28;101821.13;;;4.45;62.46
67457;BME280;54319;52.038;4.640;2023-04-06T00:56:55;101869.38;;;4.68;62.68
67457;BME280;54319;52.038;4.640;2023-04-06T00:59:22;101865.84;;;4.67;62.79
67457;BME280;54319;52.038;4.640;2023-04-06T01:01:49;101880.78;;;4.71;63.22
67457;BME280;54319;52.038;4.640;2023-04-06T01:04:19;101876.19;;;4.72;63.17
67457;BME280;54319;52.038;4.640;2023-04-06T01:06:49;101870.69;;;4.63;63.25
67457;BME280;54319;52.038;4.640;2023-04-06T01:09:16;101850.09;;;4.53;63.46
67457;BME280;54319;52.038;4.640;2023-04-06T01:11:43;101861.63;;;4.55;64.33
67457;BME280;54319;52.038;4.640;2023-04-06T01:14:10;101842.16;;;4.41;64.27
67457;BME280;54319;52.038;4.640;2023-04-06T01:16:37;101849.28;;;4.42;64.01
67457;BME280;54319;52.038;4.640;2023-04-06T01:19:07;101854.09;;;4.48;63.68
67457;BME280;54319;52.038;4.640;2023-04-06T01:21:34;101842.56;;;4.46;63.26
67457;BME280;54319;52.038;4.640;2023-04-06T01:24:02;101853.78;;;4.52;63.57
67457;BME280;54319;52.038;4.640;2023-04-06T01:26:29;101856.09;;;4.46;63.81
67457;BME280;54319;52.038;4.640;2023-04-06T01:28:56;101838.16;;;4.45;63.81
67457;BME280;54319;52.038;4.640;2023-04-06T01:31:23;101836.47;;;4.44;63.84
67457;BME280;54319;52.038;4.640;2023-04-06T01:33:50;101827.66;;;4.42;63.87
67457;BME280;54319;52.038;4.640;2023-04-06T01:36:17;101828.38;;;4.44;64.02
67457;BME280;54319;52.038;4.640;2023-04-06T01:38:44;101805.53;;;4.29;64.17
67457;BME280;54319;52.038;4.640;2023-04-06T01:41:12;101828.38;;;4.44;64.63
67457;BME280;54319;52.038;4.640;2023-04-06T01:43:39;101821.66;;;4.48;64.30
67457;BME280;54319;52.038;4.640;2023-04-06T01:46:05;101817.66;;;4.53;64.50
67457;BME280;54319;52.038;4.640;2023-04-06T01:48:32;101813.13;;;4.53;64.39
67457;BME280;54319;52.038;4.640;2023-04-06T01:50:59;101799.75;;;4.52;64.80
67457;BME280;54319;52.038;4.640;2023-04-06T01:53:25;101811.63;;;4.69;63.68
67457;BME280;54319;52.038;4.640;2023-04-06T01:55:52;101800.13;;;4.67;63.76
67457;BME280;54319;52.038;4.640;2023-04-06T01:58:20;101805.69;;;4.65;63.96
67457;BME280;54319;52.038;4.640;2023-04-06T02:00:47;101807.81;;;4.61;64.36
67457;BME280;54319;52.038;4.640;2023-04-06T02:03:15;101808.81;;;4.60;63.92
67457;BME280;54319;52.038;4.640;2023-04-06T02:05:41;101804.59;;;4.58;63.97
67457;BME280;54319;52.038;4.640;2023-04-06T02:08:08;101801.75;;;4.49;64.23
67457;BME280;54319;52.038;4.640;2023-04-06T02:10:34;101796.91;;;4.53;64.69
67457;BME280;54319;52.038;4.640;2023-04-06T02:13:01;101789.63;;;4.54;64.07
67457;BME280;54319;52.038;4.640;2023-04-06T02:15:29;101788.38;;;4.58;63.68
67457;BME280;54319;52.038;4.640;2023-04-06T02:17:57;101768.63;;;4.47;64.38
67457;BME280;54319;52.038;4.640;2023-04-06T02:20:23;101791.47;;;4.63;63.63
67457;BME280;54319;52.038;4.640;2023-04-06T02:22:50;101781.25;;;4.57;64.70
67457;BME280;54319;52.038;4.640;2023-04-06T02:25:17;101784.66;;;4.59;64.70
67457;BME280;54319;52.038;4.640;2023-04-06T02:27:43;101773.16;;;4.57;64.64
67457;BME280;54319;52.038;4.640;2023-04-06T02:30:11;101777.56;;;4.58;64.93
67457;BME280;54319;52.038;4.640;2023-04-06T02:32:39;101774.00;;;4.57;64.94
67457;BME280;54319;52.038;4.640;2023-04-06T02:35:06;101775.84;;;4.57;65.06
67457;BME280;54319;52.038;4.640;2023-04-06T02:37:33;101774.84;;;4.58;65.32
67457;BME280;54319;52.038;4.640;2023-04-06T02:40:01;101769.28;;;4.59;65.30
67457;BME280;54319;52.038;4.640;2023-04-06T02:42:27;101766.75;;;4.58;65.41
67457;BME280;54319;52.038;4.640;2023-04-06T02:44:54;101773.41;;;4.54;65.60
67457;BME280;54319;52.038;4.640;2023-04-06T02:47:21;101771.16;;;4.59;65.20
67457;BME280;54319;52.038;4.640;2023-04-06T02:49:49;101760.34;;;4.59;65.31
67457;BME280;54319;52.038;4.640;2023-04-06T02:52:16;101762.03;;;4.60;65.50
67457;BME280;54319;52.038;4.640;2023-04-06T02:54:43;101740.28;;;4.52;65.46
67457;BME280;54319;52.038;4.640;2023-04-06T02:57:10;101722.50;;;4.31;65.35
67457;BME280;54319;52.038;4.640;2023-04-06T02:59:37;101744.31;;;4.47;65.74
67457;BME280;54319;52.038;4.640;2023-04-06T03:02:03;101744.91;;;4.41;66.38
67457;BME280;54319;52.038;4.640;2023-04-06T03:04:30;101751.66;;;4.55;66.25
67457;BME280;54319;52.038;4.640;2023-04-06T03:06:58;101732.09;;;4.43;66.50
67457;BME280;54319;52.038;4.640;2023-04-06T03:09:25;101751.41;;;4.48;66.67
67457;BME280;54319;52.038;4.640;2023-04-06T03:11:52;101745.00;;;4.49;66.79
67457;BME280;54319;52.038;4.640;2023-04-06T03:14:19;101730.09;;;4.45;66.37
67457;BME280;54319;52.038;4.640;2023-04-06T03:16:47;101741.59;;;4.47;66.65
67457;BME280;54319;52.038;4.640;2023-04-06T03:19:13;101728.56;;;4.43;66.26
67457;BME280;54319;52.038;4.640;2023-04-06T03:21:40;101733.97;;;4.43;66.76
67457;BME280;54319;52.038;4.640;2023-04-06T03:24:10;101730.41;;;4.42;66.72
67457;BME280;54319;52.038;4.640;2023-04-06T03:26:36;101732.97;;;4.44;66.93
67457;BME280;54319;52.038;4.640;2023-04-06T03:29:03;101729.56;;;4.42;67.26
67457;BME280;54319;52.038;4.640;2023-04-06T03:31:29;101723.59;;;4.38;67.67
67457;BME280;54319;52.038;4.640;2023-04-06T03:33:56;101720.75;;;4.40;68.07
67457;BME280;54319;52.038;4.640;2023-04-06T03:36:24;101721.88;;;4.37;68.12
67457;BME280;54319;52.038;4.640;2023-04-06T03:38:51;101716.50;;;4.37;67.99
67457;BME280;54319;52.038;4.640;2023-04-06T03:41:20;101711.94;;;4.38;68.28
67457;BME280;54319;52.038;4.640;2023-04-06T03:43:47;101716.50;;;4.37;68.30
67457;BME280;54319;52.038;4.640;2023-04-06T03:46:14;101720.19;;;4.36;68.33
67457;BME280;54319;52.038;4.640;2023-04-06T03:48:40;101692.00;;;4.20;68.84
67457;BME280;54319;52.038;4.640;2023-04-06T03:51:07;101712.78;;;4.38;68.76
67457;BME280;54319;52.038;4.640;2023-04-06T03:53:34;101712.22;;;4.34;68.73
67457;BME280;54319;52.038;4.640;2023-04-06T03:56:03;101716.78;;;4.34;68.69
67457;BME280;54319;52.038;4.640;2023-04-06T03:58:31;101710.38;;;4.35;69.00
67457;BME280;54319;52.038;4.640;2023-04-06T04:00:58;101711.22;;;4.35;69.17
67457;BME280;54319;52.038;4.640;2023-04-06T04:03:25;101711.09;;;4.37;69.13
67457;BME280;54319;52.038;4.640;2023-04-06T04:05:52;101703.13;;;4.35;68.92
67457;BME280;54319;52.038;4.640;2023-04-06T04:08:20;101648.84;;;4.01;68.94
67457;BME280;54319;52.038;4.640;2023-04-06T04:10:47;101701.28;;;4.36;69.50
67457;BME280;54319;52.038;4.640;2023-04-06T04:13:13;101707.56;;;4.37;70.01
67457;BME280;54319;52.038;4.640;2023-04-06T04:15:41;101705.53;;;4.39;69.95
67457;BME280;54319;52.038;4.640;2023-04-06T04:18:08;101704.84;;;4.37;69.96
67457;BME280;54319;52.038;4.640;2023-04-06T04:20:35;101706.38;;;4.39;70.09
67457;BME280;54319;52.038;4.640;2023-04-06T04:23:01;101690.78;;;4.33;70.08
67457;BME280;54319;52.038;4.640;2023-04-06T04:25:28;101699.97;;;4.40;70.58
67457;BME280;54319;52.038;4.640;2023-04-06T04:27:55;101637.91;;;4.02;70.80
67457;BME280;54319;52.038;4.640;2023-04-06T04:30:21;101705.06;;;4.43;70.71
67457;BME280;54319;52.038;4.640;2023-04-06T04:32:49;101698.84;;;4.43;70.96
67457;BME280;54319;52.038;4.640;2023-04-06T04:35:16;101624.16;;;3.96;71.33
67457;BME280;54319;52.038;4.640;2023-04-06T04:37:43;101678.97;;;4.34;71.29
67457;BME280;54319;52.038;4.640;2023-04-06T04:40:10;101706.94;;;4.43;71.76
67457;BME280;54319;52.038;4.640;2023-04-06T04:42:38;101699.53;;;4.45;71.50
67457;BME280;54319;52.038;4.640;2023-04-06T04:45:05;101695.97;;;4.44;71.87
67457;BME280;54319;52.038;4.640;2023-04-06T04:47:32;101683.63;;;4.42;71.64
67457;BME280;54319;52.038;4.640;2023-04-06T04:50:00;101699.22;;;4.48;72.25
67457;BME280;54319;52.038;4.640;2023-04-06T04:52:26;101699.75;;;4.52;71.71
67457;BME280;54319;52.038;4.640;2023-04-06T04:54:53;101691.38;;;4.55;71.88
67457;BME280;54319;52.038;4.640;2023-04-06T04:57:19;101697.63;;;4.55;71.44
67457;BME280;54319;52.038;4.640;2023-04-06T04:59:46;101698.00;;;4.60;71.52
67457;BME280;54319;52.038;4.640;2023-04-06T05:02:13;101694.47;;;4.60;71.38
67457;BME280;54319;52.038;4.640;2023-04-06T05:04:39;101698.97;;;4.69;71.36
67457;BME280;54319;52.038;4.640;2023-04-06T05:07:08;101692.25;;;4.73;71.52
67457;BME280;54319;52.038;4.640;2023-04-06T05:09:35;101697.34;;;4.76;71.87
67457;BME280;54319;52.038;4.640;2023-04-06T05:12:02;101684.28;;;4.72;71.79
67457;BME280;54319;52.038;4.640;2023-04-06T05:14:28;101688.09;;;4.79;72.28
67457;BME280;54319;52.038;4.640;2023-04-06T05:16:55;101697.72;;;4.82;72.23
67457;BME280;54319;52.038;4.640;2023-04-06T05:19:22;101691.19;;;4.84;71.85
67457;BME280;54319;52.038;4.640;2023-04-06T05:21:49;101674.72;;;4.77;72.15
67457;BME280;54319;52.038;4.640;2023-04-06T05:24:17;101685.16;;;4.90;72.29
67457;BME280;54319;52.038;4.640;2023-04-06T05:26:44;101689.25;;;4.95;71.77
67457;BME280;54319;52.038;4.640;2023-04-06T05:29:12;101677.81;;;5.01;71.48
67457;BME280;54319;52.038;4.640;2023-04-06T05:31:40;101635.16;;;4.76;71.58
67457;BME280;54319;52.038;4.640;2023-04-06T05:34:06;101678.75;;;5.10;71.49
67457;BME280;54319;52.038;4.640;2023-04-06T05:36:34;101687.53;;;5.12;71.73
67457;BME280;54319;52.038;4.640;2023-04-06T05:39:01;101682.50;;;5.17;71.60
67457;BME280;54319;52.038;4.640;2023-04-06T05:41:29;101684.06;;;5.19;71.53
67457;BME280;54319;52.038;4.640;2023-04-06T05:43:55;101683.91;;;5.21;71.54
67457;BME280;54319;52.038;4.640;2023-04-06T05:46:22;101675.16;;;5.27;71.45
67457;BME280;54319;52.038;4.640;2023-04-06T05:48:49;101616.56;;;4.91;71.49
67457;BME280;54319;52.038;4.640;2023-04-06T05:51:16;101677.41;;;5.32;71.84
67457;BME280;54319;52.038;4.640;2023-04-06T05:53:42;101676.25;;;5.34;71.77
67457;BME280;54319;52.038;4.640;2023-04-06T05:56:09;101674.06;;;5.38;71.08
67457;BME280;54319;52.038;4.640;2023-04-06T05:58:37;101682.72;;;5.42;71.14
67457;BME280;54319;52.038;4.640;2023-04-06T06:01:04;101636.53;;;5.17;70.83
67457;BME280;54319;52.038;4.640;2023-04-06T06:03:31;101683.78;;;5.49;70.97
67457;BME280;54319;52.038;4.640;2023-04-06T06:06:01;101687.19;;;5.51;71.23
67457;BME280;54319;52.038;4.640;2023-04-06T06:08:28;101643.25;;;5.31;71.04
67457;BME280;54319;52.038;4.640;2023-04-06T06:10:55;101672.31;;;5.55;70.79
67457;BME280;54319;52.038;4.640;2023-04-06T06:13:22;101691.66;;;5.60;71.01
67457;BME280;54319;52.038;4.640;2023-04-06T06:15:50;101675.25;;;5.62;71.02
67457;BME280;54319;52.038;4.640;2023-04-06T06:18:17;101676.09;;;5.62;71.09
67457;BME280;54319;52.038;4.640;2023-04-06T06:20:43;101683.06;;;5.65;71.22
67457;BME280;54319;52.038;4.640;2023-04-06T06:23:11;101673.94;;;5.66;71.26
67457;BME280;54319;52.038;4.640;2023-04-06T06:25:38;101669.34;;;5.67;71.65
67457;BME280;54319;52.038;4.640;2023-04-06T06:28:05;101679.88;;;5.70;71.52
67457;BME280;54319;52.038;4.640;2023-04-06T06:30:32;101666.72;;;5.75;71.59
67457;BME280;54319;52.038;4.640;2023-04-06T06:33:00;101642.41;;;5.57;71.79
67457;BME280;54319;52.038;4.640;2023-04-06T06:35:27;101685.72;;;5.83;71.89
67457;BME280;54319;52.038;4.640;2023-04-06T06:37:53;101672.16;;;5.83;71.85
67457;BME280;54319;52.038;4.640;2023-04-06T06:40:20;101680.81;;;5.87;71.94
67457;BME280;54319;52.038;4.640;2023-04-06T06:42:49;101681.03;;;5.93;71.89
67457;BME280;54319;52.038;4.640;2023-04-06T06:45:16;101678.00;;;5.97;72.02
67457;BME280;54319;52.038;4.640;2023-04-06T06:47:43;101677.38;;;6.03;71.83
67457;BME280;54319;52.038;4.640;2023-04-06T06:50:11;101679.97;;;6.13;71.71
67457;BME280;54319;52.038;4.640;2023-04-06T06:52:38;101676.44;;;6.12;71.50
67457;BME280;54319;52.038;4.640;2023-04-06T06:55:05;101612.28;;;5.86;71.47
67457;BME280;54319;52.038;4.640;2023-04-06T06:57:32;101678.72;;;6.33;71.68
67457;BME280;54319;52.038;4.640;2023-04-06T06:59:59;101659.88;;;6.32;71.72
67457;BME280;54319;52.038;4.640;2023-04-06T07:02:26;101672.31;;;6.43;71.84
67457;BME280;54319;52.038;4.640;2023-04-06T07:04:52;101669.09;;;6.47;71.63
67457;BME280;54319;52.038;4.640;2023-04-06T07:07:20;101672.00;;;6.54;72.10
67457;BME280;54319;52.038;4.640;2023-04-06T07:09:48;101664.06;;;6.61;71.72
67457;BME280;54319;52.038;4.640;2023-04-06T07:12:15;101668.81;;;6.67;71.96
67457;BME280;54319;52.038;4.640;2023-04-06T07:14:42;101661.69;;;6.74;72.28
67457;BME280;54319;52.038;4.640;2023-04-06T07:17:08;101669.16;;;6.72;71.73
67457;BME280;54319;52.038;4.640;2023-04-06T07:19:36;101670.38;;;6.78;71.43
67457;BME280;54319;52.038;4.640;2023-04-06T07:22:02;101668.16;;;6.81;71.11
67457;BME280;54319;52.038;4.640;2023-04-06T07:24:31;101661.06;;;6.89;70.73
67457;BME280;54319;52.038;4.640;2023-04-06T07:26:58;101661.06;;;6.97;70.40
67457;BME280;54319;52.038;4.640;2023-04-06T07:29:25;101654.78;;;6.97;70.13
67457;BME280;54319;52.038;4.640;2023-04-06T07:31:52;101652.44;;;7.02;69.91
67457;BME280;54319;52.038;4.640;2023-04-06T07:34:18;101650.88;;;6.99;69.74
67457;BME280;54319;52.038;4.640;2023-04-06T07:36:45;101651.56;;;7.09;69.90
67457;BME280;54319;52.038;4.640;2023-04-06T07:39:12;101644.63;;;7.23;69.95
67457;BME280;54319;52.038;4.640;2023-04-06T07:41:40;101601.72;;;6.94;69.81
67457;BME280;54319;52.038;4.640;2023-04-06T07:44:06;101651.72;;;7.33;69.07
67457;BME280;54319;52.038;4.640;2023-04-06T07:46:33;101649.84;;;7.42;69.56
67457;BME280;54319;52.038;4.640;2023-04-06T07:49:02;101615.63;;;7.24;69.89
67457;BME280;54319;52.038;4.640;2023-04-06T07:51:29;101652.38;;;7.60;69.79
67457;BME280;54319;52.038;4.640;2023-04-06T07:53:56;101648.84;;;7.43;69.90
67457;BME280;54319;52.038;4.640;2023-04-06T07:56:22;101656.13;;;7.50;69.88
67457;BME280;54319;52.038;4.640;2023-04-06T07:58:51;101653.56;;;7.57;69.78
67457;BME280;54319;52.038;4.640;2023-04-06T08:01:20;101645.94;;;7.52;69.90
67457;BME280;54319;52.038;4.640;2023-04-06T08:03:47;101665.78;;;7.53;68.96
67457;BME280;54319;52.038;4.640;2023-04-06T08:06:14;101660.38;;;7.61;68.68
67457;BME280;54319;52.038;4.640;2023-04-06T08:08:41;101649.66;;;7.60;69.04
67457;BME280;54319;52.038;4.640;2023-04-06T08:11:07;101653.03;;;7.70;69.48
67457;BME280;54319;52.038;4.640;2023-04-06T08:13:34;101659.66;;;7.76;69.81
67457;BME280;54319;52.038;4.640;2023-04-06T08:16:03;101645.19;;;7.75;70.39
67457;BME280;54319;52.038;4.640;2023-04-06T08:18:30;101656.06;;;7.84;70.01
67457;BME280;54319;52.038;4.640;2023-04-06T08:20:57;101663.69;;;7.88;69.63
67457;BME280;54319;52.038;4.640;2023-04-06T08:23:24;101666.03;;;8.00;70.00
67457;BME280;54319;52.038;4.640;2023-04-06T08:25:50;101665.69;;;7.94;70.67
67457;BME280;54319;52.038;4.640;2023-04-06T08:28:19;101664.69;;;7.95;70.89
67457;BME280;54319;52.038;4.640;2023-04-06T08:30:46;101667.03;;;8.07;72.07
67457;BME280;54319;52.038;4.640;2023-04-06T08:33:14;101658.41;;;7.95;74.49
67457;BME280;54319;52.038;4.640;2023-04-06T08:35:41;101661.81;;;7.89;75.99
67457;BME280;54319;52.038;4.640;2023-04-06T08:38:08;101664.66;;;8.04;76.23
67457;BME280;54319;52.038;4.640;2023-04-06T08:40:36;101672.06;;;8.18;76.43
67457;BME280;54319;52.038;4.640;2023-04-06T08:43:06;101669.78;;;7.99;78.00
67457;BME280;54319;52.038;4.640;2023-04-06T08:45:38;101665.88;;;7.93;78.09
67457;BME280;54319;52.038;4.640;2023-04-06T08:48:06;101657.50;;;8.11;78.83
67457;BME280;54319;52.038;4.640;2023-04-06T08:50:34;101647.44;;;8.20;78.70
67457;BME280;54319;52.038;4.640;2023-04-06T08:53:01;101668.44;;;8.34;77.94
67457;BME280;54319;52.038;4.640;2023-04-06T08:55:28;101643.47;;;8.31;77.51
67457;BME280;54319;52.038;4.640;2023-04-06T08:57:55;101643.72;;;8.21;77.31
67457;BME280;54319;52.038;4.640;2023-04-06T09:00:22;101667.63;;;8.34;75.82
67457;BME280;54319;52.038;4.640;2023-04-06T09:02:53;101666.28;;;8.21;75.97
67457;BME280;54319;52.038;4.640;2023-04-06T09:05:21;101659.88;;;8.46;76.28
67457;BME280;54319;52.038;4.640;2023-04-06T09:07:51;101654.44;;;8.46;74.66
67457;BME280;54319;52.038;4.640;2023-04-06T09:10:18;101656.50;;;8.44;74.79
67457;BME280;54319;52.038;4.640;2023-04-06T09:12:45;101659.69;;;8.56;74.29
67457;BME280;54319;52.038;4.640;2023-04-06T09:15:18;101656.84;;;8.80;74.02
67457;BME280;54319;52.038;4.640;2023-04-06T09:17:45;101668.44;;;8.74;73.78
67457;BME280;54319;52.038;4.640;2023-04-06T09:20:12;101650.94;;;8.68;73.07
67457;BME280;54319;52.038;4.640;2023-04-06T09:22:39;101654.41;;;8.62;73.84
67457;BME280;54319;52.038;4.640;2023-04-06T09:25:08;101644.00;;;8.66;74.47
67457;BME280;54319;52.038;4.640;2023-04-06T09:27:37;101660.75;;;8.78;75.26
67457;BME280;54319;52.038;4.640;2023-04-06T09:30:05;101648.38;;;8.75;74.69
67457;BME280;54319;52.038;4.640;2023-04-06T09:32:32;101647.38;;;8.68;74.06
67457;BME280;54319;52.038;4.640;2023-04-06T09:35:10;101658.25;;;8.68;74.86
67457;BME280;54319;52.038;4.640;2023-04-06T09:37:37;101638.31;;;8.44;75.57
67457;BME280;54319;52.038;4.640;2023-04-06T09:40:07;101648.81;;;8.56;76.47
67457;BME280;54319;52.038;4.640;2023-04-06T09:42:35;101629.56;;;8.34;75.70
67457;BME280;54319;52.038;4.640;2023-04-06T09:45:02;101646.84;;;8.41;76.64
67457;BME280;54319;52.038;4.640;2023-04-06T09:47:30;101638.38;;;8.28;77.92
67457;BME280;54319;52.038;4.640;2023-04-06T09:49:59;101639.78;;;8.23;79.39
67457;BME280;54319;52.038;4.640;2023-04-06T09:52:27;101646.28;;;8.14;80.42
67457;BME280;54319;52.038;4.640;2023-04-06T09:54:55;101647.63;;;8.18;80.51
67457;BME280;54319;52.038;4.640;2023-04-06T09:57:30;101641.91;;;8.05;80.73
67457;BME280;54319;52.038;4.640;2023-04-06T10:00:03;101641.16;;;8.19;82.56
67457;BME280;54319;52.038;4.640;2023-04-06T10:02:39;101631.94;;;8.29;81.38
67457;BME280;54319;52.038;4.640;2023-04-06T10:05:12;101642.03;;;8.11;82.09
67457;BME280;54319;52.038;4.640;2023-04-06T10:07:40;101633.97;;;8.26;82.18
67457;BME280;54319;52.038;4.640;2023-04-06T10:10:08;101633.97;;;8.26;82.81
67457;BME280;54319;52.038;4.640;2023-04-06T10:12:38;101632.28;;;8.34;82.88
67457;BME280;54319;52.038;4.640;2023-04-06T10:15:07;101636.63;;;8.43;83.62
67457;BME280;54319;52.038;4.640;2023-04-06T10:17:35;101634.44;;;8.38;83.52
67457;BME280;54319;52.038;4.640;2023-04-06T10:20:05;101620.13;;;8.13;84.07
67457;BME280;54319;52.038;4.640;2023-04-06T10:22:52;101626.44;;;8.05;84.90
67457;BME280;54319;52.038;4.640;2023-04-06T10:25:31;101623.81;;;8.20;85.43
67457;BME280;54319;52.038;4.640;2023-04-06T10:28:05;101602.53;;;8.01;85.90
67457;BME280;54319;52.038;4.640;2023-04-06T10:30:33;101620.75;;;8.23;85.79
67457;BME280;54319;52.038;4.640;2023-04-06T10:33:00;101617.75;;;8.10;85.36
67457;BME280;54319;52.038;4.640;2023-04-06T10:35:36;101613.38;;;8.01;87.08
67457;BME280;54319;52.038;4.640;2023-04-06T10:38:05;101610.53;;;7.94;87.23
67457;BME280;54319;52.038;4.640;2023-04-06T10:40:36;101610.91;;;7.82;87.91
67457;BME280;54319;52.038;4.640;2023-04-06T10:43:11;101611.72;;;7.91;89.10
67457;BME280;54319;52.038;4.640;2023-04-06T10:45:38;101601.88;;;7.90;88.79
67457;BME280;54319;52.038;4.640;2023-04-06T10:48:14;101595.59;;;7.90;88.44
67457;BME280;54319;52.038;4.640;2023-04-06T10:50:43;101595.94;;;7.87;89.53
67457;BME280;54319;52.038;4.640;2023-04-06T10:53:10;101597.66;;;7.88;90.33
67457;BME280;54319;52.038;4.640;2023-04-06T10:55:38;101593.91;;;7.89;90.27
67457;BME280;54319;52.038;4.640;2023-04-06T10:58:06;101587.13;;;7.85;90.51
67457;BME280;54319;52.038;4.640;2023-04-06T11:00:34;101586.63;;;7.81;90.43
67457;BME280;54319;52.038;4.640;2023-04-06T11:03:01;101586.00;;;7.71;90.42
67457;BME280;54319;52.038;4.640;2023-04-06T11:05:28;101580.47;;;7.87;91.48
67457;BME280;54319;52.038;4.640;2023-04-06T11:07:56;101583.88;;;7.89;91.67
67457;BME280;54319;52.038;4.640;2023-04-06T11:10:22;101557.06;;;7.86;91.83
67457;BME280;54319;52.038;4.640;2023-04-06T11:12:53;101582.50;;;7.93;92.04
67457;BME280;54319;52.038;4.640;2023-04-06T11:15:20;101580.78;;;7.92;91.18
67457;BME280;54319;52.038;4.640;2023-04-06T11:17:48;101574.94;;;7.80;91.37
67457;BME280;54319;52.038;4.640;2023-04-06T11:20:15;101573.56;;;7.76;91.77
67457;BME280;54319;52.038;4.640;2023-04-06T11:22:49;101577.53;;;7.65;91.55
67457;BME280;54319;52.038;4.640;2023-04-06T11:25:16;101569.16;;;7.75;92.35
67457;BME280;54319;52.038;4.640;2023-04-06T11:27:44;101562.22;;;7.73;93.17
67457;BME280;54319;52.038;4.640;2023-04-06T11:30:12;101563.28;;;7.63;92.47
67457;BME280;54319;52.038;4.640;2023-04-06T11:32:40;101556.81;;;7.64;93.14
67457;BME280;54319;52.038;4.640;2023-04-06T11:35:10;101548.81;;;7.71;93.35
67457;BME280;54319;52.038;4.640;2023-04-06T11:37:39;101556.75;;;7.81;93.45
67457;BME280;54319;52.038;4.640;2023-04-06T11:40:08;101545.91;;;7.73;94.07
67457;BME280;54319;52.038;4.640;2023-04-06T11:42:35;101566.53;;;7.99;94.34
67457;BME280;54319;52.038;4.640;2023-04-06T11:45:02;101554.00;;;7.89;93.76
67457;BME280;54319;52.038;4.640;2023-04-06T11:47:30;101543.97;;;7.90;94.56
67457;BME280;54319;52.038;4.640;2023-04-06T11:50:05;101542.25;;;7.97;93.50
67457;BME280;54319;52.038;4.640;2023-04-06T11:52:33;101543.16;;;7.81;94.74
67457;BME280;54319;52.038;4.640;2023-04-06T11:55:10;101543.53;;;7.78;94.45
67457;BME280;54319;52.038;4.640;2023-04-06T11:57:37;101529.84;;;7.94;94.86
67457;BME280;54319;52.038;4.640;2023-04-06T12:00:06;101524.41;;;7.94;94.89
67457;BME280;54319;52.038;4.640;2023-04-06T12:02:33;101535.78;;;7.98;93.75
67457;BME280;54319;52.038;4.640;2023-04-06T12:05:00;101522.91;;;7.92;94.24
67457;BME280;54319;52.038;4.640;2023-04-06T12:07:26;101522.19;;;7.98;93.49
67457;BME280;54319;52.038;4.640;2023-04-06T12:09:56;101524.59;;;7.93;93.37
67457;BME280;54319;52.038;4.640;2023-04-06T12:12:22;101531.06;;;7.92;94.31
67457;BME280;54319;52.038;4.640;2023-04-06T12:14:49;101527.50;;;7.91;94.52
67457;BME280;54319;52.038;4.640;2023-04-06T12:17:16;101535.69;;;7.83;94.65
67457;BME280;54319;52.038;4.640;2023-04-06T12:19:43;101530.44;;;7.81;95.36
67457;BME280;54319;52.038;4.640;2023-04-06T12:22:09;101528.03;;;7.87;95.30
67457;BME280;54319;52.038;4.640;2023-04-06T12:24:36;101524.19;;;7.73;94.87
67457;BME280;54319;52.038;4.640;2023-04-06T12:27:04;101526.88;;;7.81;95.13
67457;BME280;54319;52.038;4.640;2023-04-06T12:29:31;101519.16;;;7.61;94.76
67457;BME280;54319;52.038;4.640;2023-04-06T12:31:59;101530.47;;;7.73;95.73
67457;BME280;54319;52.038;4.640;2023-04-06T12:34:26;101528.97;;;7.71;95.00
67457;BME280;54319;52.038;4.640;2023-04-06T12:36:53;101527.94;;;7.72;95.60
67457;BME280;54319;52.038;4.640;2023-04-06T12:39:21;101518.28;;;7.61;95.71
67457;BME280;54319;52.038;4.640;2023-04-06T12:41:47;101518.56;;;7.74;96.33
67457;BME280;54319;52.038;4.640;2023-04-06T12:44:16;101525.69;;;7.75;96.12
67457;BME280;54319;52.038;4.640;2023-04-06T12:46:42;101515.38;;;7.71;96.12
67457;BME280;54319;52.038;4.640;2023-04-06T12:49:09;101516.22;;;7.71;96.42
67457;BME280;54319;52.038;4.640;2023-04-06T12:51:36;101518.41;;;7.76;96.71
67457;BME280;54319;52.038;4.640;2023-04-06T12:54:03;101495.50;;;7.70;96.43
67457;BME280;54319;52.038;4.640;2023-04-06T12:56:30;101506.16;;;7.80;96.32
67457;BME280;54319;52.038;4.640;2023-04-06T12:58:57;101508.34;;;7.85;96.00
67457;BME280;54319;52.038;4.640;2023-04-06T13:01:26;101455.38;;;7.49;96.43